sensor_id;sensor_type;location;lat;lon;timestamp;pressure;altitude;pressure_sealevel;temperature;humidity
49102;BME280;34913;47.520;19.186;2023-03-16T00:02:07;99858.22;;;3.55;55.01
49102;BME280;34913;47.520;19.186;2023-03-16T00:04:33;99858.72;;;3.46;55.45
49102;BME280;34913;47.520;19.186;2023-03-16T00:07:03;99859.34;;;3.35;54.33
49102;BME280;34913;47.520;19.186;2023-03-16T00:09:28;99859.16;;;3.22;54.94
49102;BME280;34913;47.520;19.186;2023-03-16T00:11:59;99867.44;;;3.15;55.22
49102;BME280;34913;47.520;19.186;2023-03-16T00:14:27;99869.47;;;3.10;55.22
49102;BME280;34913;47.520;19.186;2023-03-16T00:16:53;99870.03;;;2.99;55.63
49102;BME280;34913;47.520;19.186;2023-03-16T00:19:19;99873.09;;;3.07;55.05
49102;BME280;34913;47.520;19.186;2023-03-16T00:21:48;99871.25;;;3.09;55.31
49102;BME280;34913;47.520;19.186;2023-03-16T00:24:14;99870.00;;;3.16;55.43
49102;BME280;34913;47.520;19.186;2023-03-16T00:26:43;99879.06;;;3.26;54.24
49102;BME280;34913;47.520;19.186;2023-03-16T00:29:08;99879.28;;;3.22;54.45
49102;BME280;34913;47.520;19.186;2023-03-16T00:31:34;99880.38;;;3.02;54.60
49102;BME280;34913;47.520;19.186;2023-03-16T00:34:00;99876.56;;;3.07;54.40
49102;BME280;34913;47.520;19.186;2023-03-16T00:36:27;99871.56;;;3.03;54.61
49102;BME280;34913;47.520;19.186;2023-03-16T00:38:52;99877.84;;;3.00;54.66
49102;BME280;34913;47.520;19.186;2023-03-16T00:41:18;99878.00;;;2.97;54.74
49102;BME280;34913;47.520;19.186;2023-03-16T00:43:44;99879.34;;;3.04;55.06
49102;BME280;34913;47.520;19.186;2023-03-16T00:46:12;99882.22;;;3.00;55.01
49102;BME280;34913;47.520;19.186;2023-03-16T00:48:40;99879.53;;;3.01;55.59
49102;BME280;34913;47.520;19.186;2023-03-16T00:51:08;99883.13;;;2.99;55.83
49102;BME280;34913;47.520;19.186;2023-03-16T00:53:38;99885.63;;;3.02;55.80
49102;BME280;34913;47.520;19.186;2023-03-16T00:56:04;99886.16;;;3.08;55.82
49102;BME280;34913;47.520;19.186;2023-03-16T00:58:31;99887.13;;;3.06;56.04
49102;BME280;34913;47.520;19.186;2023-03-16T01:01:05;99892.91;;;3.13;55.96
49102;BME280;34913;47.520;19.186;2023-03-16T01:03:31;99895.69;;;3.10;56.09
49102;BME280;34913;47.520;19.186;2023-03-16T01:05:57;99903.56;;;3.10;56.15
49102;BME280;34913;47.520;19.186;2023-03-16T01:08:26;99900.94;;;3.10;56.24
49102;BME280;34913;47.520;19.186;2023-03-16T01:10:54;99900.09;;;3.09;56.64
49102;BME280;34913;47.520;19.186;2023-03-16T01:13:20;99902.19;;;3.02;56.76
49102;BME280;34913;47.520;19.186;2023-03-16T01:15:49;99891.84;;;2.99;57.13
49102;BME280;34913;47.520;19.186;2023-03-16T01:18:15;99892.97;;;2.95;57.73
49102;BME280;34913;47.520;19.186;2023-03-16T01:20:40;99895.06;;;2.89;56.64
49102;BME280;34913;47.520;19.186;2023-03-16T01:23:13;99893.06;;;2.76;56.73
49102;BME280;34913;47.520;19.186;2023-03-16T01:25:38;99892.59;;;2.68;57.94
49102;BME280;34913;47.520;19.186;2023-03-16T01:28:04;99900.09;;;2.59;57.92
49102;BME280;34913;47.520;19.186;2023-03-16T01:30:29;99897.78;;;2.52;58.90
49102;BME280;34913;47.520;19.186;2023-03-16T01:32:54;99907.91;;;2.43;58.73
49102;BME280;34913;47.520;19.186;2023-03-16T01:35:20;99901.34;;;2.34;59.30
49102;BME280;34913;47.520;19.186;2023-03-16T01:37:45;99903.59;;;2.24;59.53
49102;BME280;34913;47.520;19.186;2023-03-16T01:40:11;99904.28;;;2.11;59.88
49102;BME280;34913;47.520;19.186;2023-03-16T01:42:43;99899.13;;;2.09;60.24
49102;BME280;34913;47.520;19.186;2023-03-16T01:48:13;99907.63;;;1.95;60.47
49102;BME280;34913;47.520;19.186;2023-03-16T01:50:39;99912.84;;;1.78;61.23
49102;BME280;34913;47.520;19.186;2023-03-16T01:53:07;99913.38;;;1.67;61.52
49102;BME280;34913;47.520;19.186;2023-03-16T01:55:33;99915.84;;;1.52;62.00
49102;BME280;34913;47.520;19.186;2023-03-16T01:57:58;99917.41;;;1.37;62.83
49102;BME280;34913;47.520;19.186;2023-03-16T02:00:24;99925.88;;;1.23;63.24
49102;BME280;34913;47.520;19.186;2023-03-16T02:03:12;99926.44;;;1.11;64.09
49102;BME280;34913;47.520;19.186;2023-03-16T02:05:43;99926.97;;;0.99;64.36
49102;BME280;34913;47.520;19.186;2023-03-16T02:08:10;99928.94;;;0.94;64.59
49102;BME280;34913;47.520;19.186;2023-03-16T02:10:36;99935.09;;;0.93;65.53
49102;BME280;34913;47.520;19.186;2023-03-16T02:13:03;99935.09;;;0.93;65.12
49102;BME280;34913;47.520;19.186;2023-03-16T02:15:28;99933.63;;;0.87;65.53
49102;BME280;34913;47.520;19.186;2023-03-16T02:17:55;99949.47;;;0.82;65.31
49102;BME280;34913;47.520;19.186;2023-03-16T02:21:23;99949.47;;;0.82;65.20
49102;BME280;34913;47.520;19.186;2023-03-16T02:23:24;99965.03;;;0.65;65.90
49102;BME280;34913;47.520;19.186;2023-03-16T02:26:13;99962.00;;;0.54;66.37
49102;BME280;34913;47.520;19.186;2023-03-16T02:31:37;99960.91;;;0.60;66.82
49102;BME280;34913;47.520;19.186;2023-03-16T02:34:03;99965.09;;;0.64;66.27
49102;BME280;34913;47.520;19.186;2023-03-16T02:36:28;99975.41;;;0.67;66.17
49102;BME280;34913;47.520;19.186;2023-03-16T02:38:54;99981.47;;;0.67;65.90
49102;BME280;34913;47.520;19.186;2023-03-16T02:41:20;99979.56;;;0.71;65.76
49102;BME280;34913;47.520;19.186;2023-03-16T02:43:52;99986.25;;;0.78;66.09
49102;BME280;34913;47.520;19.186;2023-03-16T02:46:20;99981.69;;;0.83;65.94
49102;BME280;34913;47.520;19.186;2023-03-16T02:49:11;99984.09;;;0.88;65.37
49102;BME280;34913;47.520;19.186;2023-03-16T02:51:41;99988.13;;;0.95;65.60
49102;BME280;34913;47.520;19.186;2023-03-16T02:54:06;99994.78;;;1.02;65.40
49102;BME280;34913;47.520;19.186;2023-03-16T02:56:32;99996.38;;;1.06;65.28
49102;BME280;34913;47.520;19.186;2023-03-16T02:58:57;99996.16;;;1.10;65.29
49102;BME280;34913;47.520;19.186;2023-03-16T03:01:23;99995.44;;;1.07;65.30
49102;BME280;34913;47.520;19.186;2023-03-16T03:03:49;100001.19;;;1.15;65.33
49102;BME280;34913;47.520;19.186;2023-03-16T03:06:14;100002.75;;;1.19;65.48
49102;BME280;34913;47.520;19.186;2023-03-16T03:08:40;100007.00;;;1.22;65.04
49102;BME280;34913;47.520;19.186;2023-03-16T03:11:07;100008.69;;;1.23;65.29
49102;BME280;34913;47.520;19.186;2023-03-16T03:13:33;100011.16;;;1.26;65.47
49102;BME280;34913;47.520;19.186;2023-03-16T03:15:59;100017.31;;;1.25;65.88
49102;BME280;34913;47.520;19.186;2023-03-16T03:18:24;100026.00;;;1.25;65.38
49102;BME280;34913;47.520;19.186;2023-03-16T03:20:49;100032.38;;;1.20;65.38
49102;BME280;34913;47.520;19.186;2023-03-16T03:23:15;100031.56;;;1.18;65.96
49102;BME280;34913;47.520;19.186;2023-03-16T03:25:41;100033.41;;;1.16;65.66
49102;BME280;34913;47.520;19.186;2023-03-16T03:28:07;100035.25;;;1.14;65.64
49102;BME280;34913;47.520;19.186;2023-03-16T03:30:34;100042.41;;;1.08;65.46
49102;BME280;34913;47.520;19.186;2023-03-16T03:33:00;100042.34;;;1.10;66.02
49102;BME280;34913;47.520;19.186;2023-03-16T03:35:26;100047.53;;;1.11;65.97
49102;BME280;34913;47.520;19.186;2023-03-16T03:37:52;100050.25;;;1.08;66.22
49102;BME280;34913;47.520;19.186;2023-03-16T03:40:18;100051.91;;;1.11;66.51
49102;BME280;34913;47.520;19.186;2023-03-16T03:42:44;100059.81;;;1.09;66.74
49102;BME280;34913;47.520;19.186;2023-03-16T03:45:11;100055.41;;;1.10;66.87
49102;BME280;34913;47.520;19.186;2023-03-16T03:47:37;100052.81;;;1.10;66.44
49102;BME280;34913;47.520;19.186;2023-03-16T03:50:03;100058.19;;;1.07;66.63
49102;BME280;34913;47.520;19.186;2023-03-16T03:52:29;100063.16;;;1.13;66.70
49102;BME280;34913;47.520;19.186;2023-03-16T03:54:55;100063.06;;;1.15;66.89
49102;BME280;34913;47.520;19.186;2023-03-16T03:57:20;100066.53;;;1.15;67.21
49102;BME280;34913;47.520;19.186;2023-03-16T03:59:45;100068.50;;;1.10;67.28
49102;BME280;34913;47.520;19.186;2023-03-16T04:02:11;100071.94;;;1.10;67.50
49102;BME280;34913;47.520;19.186;2023-03-16T04:04:38;100068.50;;;1.10;66.69
49102;BME280;34913;47.520;19.186;2023-03-16T04:07:04;100077.25;;;1.09;66.42
49102;BME280;34913;47.520;19.186;2023-03-16T04:09:29;100085.56;;;0.98;66.59
49102;BME280;34913;47.520;19.186;2023-03-16T04:12:02;100076.50;;;0.85;66.89
49102;BME280;34913;47.520;19.186;2023-03-16T04:14:29;100078.91;;;0.69;67.28
49102;BME280;34913;47.520;19.186;2023-03-16T04:16:55;100079.50;;;0.55;68.33
49102;BME280;34913;47.520;19.186;2023-03-16T04:19:22;100086.19;;;0.39;68.65
49102;BME280;34913;47.520;19.186;2023-03-16T04:21:48;100081.97;;;0.37;69.03
49102;BME280;34913;47.520;19.186;2023-03-16T04:24:14;100082.19;;;0.31;69.27
49102;BME280;34913;47.520;19.186;2023-03-16T04:26:40;100092.16;;;0.21;69.21
49102;BME280;34913;47.520;19.186;2023-03-16T04:29:06;100093.50;;;0.09;69.67
49102;BME280;34913;47.520;19.186;2023-03-16T04:31:31;100095.53;;;0.01;70.20
49102;BME280;34913;47.520;19.186;2023-03-16T04:33:57;100092.88;;;0.03;70.31
49102;BME280;34913;47.520;19.186;2023-03-16T04:36:23;100097.00;;;0.08;70.81
49102;BME280;34913;47.520;19.186;2023-03-16T04:38:49;100096.81;;;0.13;70.25
49102;BME280;34913;47.520;19.186;2023-03-16T04:41:14;100102.94;;;0.12;70.24
49102;BME280;34913;47.520;19.186;2023-03-16T04:43:40;100098.94;;;0.03;71.18
49102;BME280;34913;47.520;19.186;2023-03-16T04:46:07;100097.34;;;-0.01;70.75
49102;BME280;34913;47.520;19.186;2023-03-16T04:48:33;100102.44;;;0.02;71.15
49102;BME280;34913;47.520;19.186;2023-03-16T04:50:59;100104.22;;;0.02;71.04
49102;BME280;34913;47.520;19.186;2023-03-16T04:53:26;100106.06;;;-0.02;71.15
49102;BME280;34913;47.520;19.186;2023-03-16T04:55:52;100105.00;;;0.04;71.10
49102;BME280;34913;47.520;19.186;2023-03-16T04:58:17;100110.78;;;0.12;71.68
49102;BME280;34913;47.520;19.186;2023-03-16T05:00:43;100115.84;;;0.16;71.26
49102;BME280;34913;47.520;19.186;2023-03-16T05:03:10;100115.53;;;0.24;70.87
49102;BME280;34913;47.520;19.186;2023-03-16T05:05:37;100117.72;;;0.35;71.35
49102;BME280;34913;47.520;19.186;2023-03-16T05:08:03;100124.66;;;0.36;70.21
49102;BME280;34913;47.520;19.186;2023-03-16T05:10:31;100123.03;;;0.33;70.52
49102;BME280;34913;47.520;19.186;2023-03-16T05:12:57;100128.19;;;0.35;70.65
49102;BME280;34913;47.520;19.186;2023-03-16T05:15:23;100141.56;;;0.49;70.53
49102;BME280;34913;47.520;19.186;2023-03-16T05:17:48;100134.56;;;0.49;70.86
49102;BME280;34913;47.520;19.186;2023-03-16T05:20:14;100136.13;;;0.53;70.92
49102;BME280;34913;47.520;19.186;2023-03-16T05:22:41;100135.22;;;0.54;70.57
49102;BME280;34913;47.520;19.186;2023-03-16T05:25:08;100140.44;;;0.54;69.87
49102;BME280;34913;47.520;19.186;2023-03-16T05:27:33;100144.03;;;0.52;70.14
49102;BME280;34913;47.520;19.186;2023-03-16T05:29:59;100144.09;;;0.50;70.16
49102;BME280;34913;47.520;19.186;2023-03-16T05:32:26;100144.19;;;0.47;70.66
49102;BME280;34913;47.520;19.186;2023-03-16T05:34:51;100149.47;;;0.46;70.61
49102;BME280;34913;47.520;19.186;2023-03-16T05:37:19;100147.63;;;0.49;70.54
49102;BME280;34913;47.520;19.186;2023-03-16T05:39:45;100152.03;;;0.47;70.80
49102;BME280;34913;47.520;19.186;2023-03-16T05:42:10;100155.31;;;0.52;70.57
49102;BME280;34913;47.520;19.186;2023-03-16T05:44:36;100146.28;;;0.61;70.89
49102;BME280;34913;47.520;19.186;2023-03-16T05:47:01;100156.41;;;0.69;70.59
49102;BME280;34913;47.520;19.186;2023-03-16T05:49:27;100153.41;;;0.79;70.23
49102;BME280;34913;47.520;19.186;2023-03-16T05:51:53;100154.72;;;0.90;69.65
49102;BME280;34913;47.520;19.186;2023-03-16T05:54:18;100163.88;;;1.00;69.67
49102;BME280;34913;47.520;19.186;2023-03-16T05:56:44;100162.56;;;1.11;69.08
49102;BME280;34913;47.520;19.186;2023-03-16T05:59:09;100168.63;;;1.32;68.38
49102;BME280;34913;47.520;19.186;2023-03-16T06:01:34;100172.81;;;1.57;67.90
49102;BME280;34913;47.520;19.186;2023-03-16T06:04:00;100177.00;;;1.81;67.08
49102;BME280;34913;47.520;19.186;2023-03-16T06:06:27;100181.03;;;2.09;66.05
49102;BME280;34913;47.520;19.186;2023-03-16T06:08:53;100173.66;;;2.36;64.74
49102;BME280;34913;47.520;19.186;2023-03-16T06:11:18;100178.81;;;2.75;63.75
49102;BME280;34913;47.520;19.186;2023-03-16T06:13:44;100175.97;;;3.16;62.60
49102;BME280;34913;47.520;19.186;2023-03-16T06:16:09;100179.94;;;3.59;60.38
49102;BME280;34913;47.520;19.186;2023-03-16T06:18:37;100188.47;;;3.97;58.87
49102;BME280;34913;47.520;19.186;2023-03-16T06:21:04;100193.34;;;4.20;56.70
49102;BME280;34913;47.520;19.186;2023-03-16T06:23:29;100188.72;;;4.73;56.10
49102;BME280;34913;47.520;19.186;2023-03-16T06:25:55;100198.69;;;5.29;54.34
49102;BME280;34913;47.520;19.186;2023-03-16T06:28:21;100206.22;;;5.66;52.45
49102;BME280;34913;47.520;19.186;2023-03-16T06:30:47;100206.00;;;5.99;51.64
49102;BME280;34913;47.520;19.186;2023-03-16T06:33:12;100210.38;;;6.14;51.04
49102;BME280;34913;47.520;19.186;2023-03-16T06:35:38;100212.06;;;6.43;49.92
49102;BME280;34913;47.520;19.186;2023-03-16T06:38:03;100208.22;;;6.49;49.76
49102;BME280;34913;47.520;19.186;2023-03-16T06:40:29;100215.66;;;6.98;48.85
49102;BME280;34913;47.520;19.186;2023-03-16T06:42:55;100217.53;;;6.96;48.51
49102;BME280;34913;47.520;19.186;2023-03-16T06:45:20;100222.78;;;7.37;47.66
49102;BME280;34913;47.520;19.186;2023-03-16T06:47:47;100227.00;;;8.05;46.24
49102;BME280;34913;47.520;19.186;2023-03-16T06:50:12;100235.19;;;8.40;44.66
49102;BME280;34913;47.520;19.186;2023-03-16T06:52:38;100233.28;;;8.55;44.03
49102;BME280;34913;47.520;19.186;2023-03-16T06:55:03;100239.19;;;8.71;43.80
49102;BME280;34913;47.520;19.186;2023-03-16T06:57:29;100239.75;;;8.38;43.67
49102;BME280;34913;47.520;19.186;2023-03-16T06:59:55;100246.50;;;8.42;43.91
49102;BME280;34913;47.520;19.186;2023-03-16T07:02:20;100240.19;;;8.81;42.49
49102;BME280;34913;47.520;19.186;2023-03-16T07:04:48;100241.19;;;9.04;42.02
49102;BME280;34913;47.520;19.186;2023-03-16T07:07:13;100248.72;;;9.10;41.21
49102;BME280;34913;47.520;19.186;2023-03-16T07:09:39;100248.44;;;9.50;41.34
49102;BME280;34913;47.520;19.186;2023-03-16T07:12:06;100251.81;;;8.91;41.40
49102;BME280;34913;47.520;19.186;2023-03-16T07:14:32;100249.63;;;8.85;41.08
49102;BME280;34913;47.520;19.186;2023-03-16T07:16:57;100262.50;;;8.53;41.30
49102;BME280;34913;47.520;19.186;2023-03-16T07:19:23;100265.75;;;8.70;40.16
49102;BME280;34913;47.520;19.186;2023-03-16T07:21:48;100259.09;;;8.38;40.64
49102;BME280;34913;47.520;19.186;2023-03-16T07:24:14;100259.59;;;8.31;40.31
49102;BME280;34913;47.520;19.186;2023-03-16T07:26:40;100270.72;;;8.23;40.62
49102;BME280;34913;47.520;19.186;2023-03-16T07:29:05;100254.41;;;8.17;39.71
49102;BME280;34913;47.520;19.186;2023-03-16T07:31:32;100256.53;;;8.37;38.78
49102;BME280;34913;47.520;19.186;2023-03-16T07:33:58;100263.66;;;8.49;38.91
49102;BME280;34913;47.520;19.186;2023-03-16T07:36:24;100263.94;;;8.57;39.24
49102;BME280;34913;47.520;19.186;2023-03-16T07:38:49;100268.97;;;7.97;39.01
49102;BME280;34913;47.520;19.186;2023-03-16T07:41:16;100262.75;;;7.58;39.83
49102;BME280;34913;47.520;19.186;2023-03-16T07:43:41;100271.00;;;7.53;40.53
49102;BME280;34913;47.520;19.186;2023-03-16T07:46:09;100276.56;;;7.49;40.40
49102;BME280;34913;47.520;19.186;2023-03-16T07:48:38;100282.03;;;7.73;39.71
49102;BME280;34913;47.520;19.186;2023-03-16T07:51:04;100287.41;;;7.59;39.31
49102;BME280;34913;47.520;19.186;2023-03-16T07:53:29;100281.16;;;7.33;40.45
49102;BME280;34913;47.520;19.186;2023-03-16T07:55:56;100283.44;;;7.78;40.18
49102;BME280;34913;47.520;19.186;2023-03-16T07:58:22;100291.63;;;8.01;40.37
49102;BME280;34913;47.520;19.186;2023-03-16T08:00:47;100287.81;;;8.05;39.99
49102;BME280;34913;47.520;19.186;2023-03-16T08:03:12;100290.38;;;8.19;38.66
49102;BME280;34913;47.520;19.186;2023-03-16T08:05:38;100283.00;;;8.37;38.76
49102;BME280;34913;47.520;19.186;2023-03-16T08:08:03;100298.47;;;8.56;38.64
49102;BME280;34913;47.520;19.186;2023-03-16T08:10:29;100290.28;;;8.59;38.15
49102;BME280;34913;47.520;19.186;2023-03-16T08:12:55;100288.84;;;8.55;38.54
49102;BME280;34913;47.520;19.186;2023-03-16T08:15:20;100291.03;;;8.61;37.88
49102;BME280;34913;47.520;19.186;2023-03-16T08:17:46;100301.22;;;8.54;37.90
49102;BME280;34913;47.520;19.186;2023-03-16T08:20:12;100297.19;;;8.49;37.81
49102;BME280;34913;47.520;19.186;2023-03-16T08:22:40;100307.53;;;8.52;38.38
49102;BME280;34913;47.520;19.186;2023-03-16T08:25:07;100299.28;;;8.44;39.29
49102;BME280;34913;47.520;19.186;2023-03-16T08:27:35;100295.06;;;8.79;38.37
49102;BME280;34913;47.520;19.186;2023-03-16T08:30:07;100307.16;;;9.20;36.81
49102;BME280;34913;47.520;19.186;2023-03-16T08:32:36;100303.00;;;9.52;37.08
49102;BME280;34913;47.520;19.186;2023-03-16T08:35:04;100300.97;;;9.56;36.65
49102;BME280;34913;47.520;19.186;2023-03-16T08:37:30;100309.09;;;9.05;37.98
49102;BME280;34913;47.520;19.186;2023-03-16T08:39:56;100307.59;;;9.38;36.93
49102;BME280;34913;47.520;19.186;2023-03-16T08:42:22;100309.34;;;9.26;36.35
49102;BME280;34913;47.520;19.186;2023-03-16T08:44:48;100307.06;;;9.09;36.86
49102;BME280;34913;47.520;19.186;2023-03-16T08:47:13;100309.47;;;9.25;37.86
49102;BME280;34913;47.520;19.186;2023-03-16T08:49:39;100312.44;;;9.57;36.30
49102;BME280;34913;47.520;19.186;2023-03-16T08:52:06;100305.47;;;9.43;36.41
49102;BME280;34913;47.520;19.186;2023-03-16T08:54:35;100305.47;;;9.67;35.51
49102;BME280;34913;47.520;19.186;2023-03-16T08:57:01;100309.59;;;9.71;35.76
49102;BME280;34913;47.520;19.186;2023-03-16T08:59:26;100307.44;;;9.52;35.19
49102;BME280;34913;47.520;19.186;2023-03-16T09:01:52;100313.00;;;9.73;35.63
49102;BME280;34913;47.520;19.186;2023-03-16T09:04:18;100303.69;;;10.02;34.49
49102;BME280;34913;47.520;19.186;2023-03-16T09:06:45;100315.22;;;9.90;33.81
49102;BME280;34913;47.520;19.186;2023-03-16T09:09:12;100316.00;;;10.03;33.38
49102;BME280;34913;47.520;19.186;2023-03-16T09:11:37;100307.88;;;9.94;33.66
49102;BME280;34913;47.520;19.186;2023-03-16T09:14:03;100318.25;;;9.97;33.46
49102;BME280;34913;47.520;19.186;2023-03-16T09:16:28;100318.44;;;9.83;34.31
49102;BME280;34913;47.520;19.186;2023-03-16T09:18:55;100327.06;;;9.97;33.42
49102;BME280;34913;47.520;19.186;2023-03-16T09:21:21;100320.19;;;9.71;33.61
49102;BME280;34913;47.520;19.186;2023-03-16T09:23:47;100319.56;;;9.91;34.77
49102;BME280;34913;47.520;19.186;2023-03-16T09:26:13;100332.88;;;9.78;33.60
49102;BME280;34913;47.520;19.186;2023-03-16T09:28:40;100327.94;;;9.74;34.08
49102;BME280;34913;47.520;19.186;2023-03-16T09:31:07;100326.84;;;9.52;34.53
49102;BME280;34913;47.520;19.186;2023-03-16T09:33:33;100326.44;;;9.70;34.73
49102;BME280;34913;47.520;19.186;2023-03-16T09:36:00;100320.56;;;10.01;33.57
49102;BME280;34913;47.520;19.186;2023-03-16T09:38:26;100324.41;;;10.32;33.38
49102;BME280;34913;47.520;19.186;2023-03-16T09:43:54;100318.06;;;10.46;33.18
49102;BME280;34913;47.520;19.186;2023-03-16T09:48:53;100332.47;;;11.22;30.84
49102;BME280;34913;47.520;19.186;2023-03-16T09:51:44;100336.31;;;11.18;30.43
49102;BME280;34913;47.520;19.186;2023-03-16T09:54:37;100331.47;;;10.89;30.08
49102;BME280;34913;47.520;19.186;2023-03-16T09:57:23;100339.56;;;10.19;30.95
49102;BME280;34913;47.520;19.186;2023-03-16T09:59:50;100329.59;;;10.34;32.35
49102;BME280;34913;47.520;19.186;2023-03-16T10:02:45;100340.06;;;10.24;31.60
49102;BME280;34913;47.520;19.186;2023-03-16T10:05:15;100337.28;;;9.91;31.86
49102;BME280;34913;47.520;19.186;2023-03-16T10:13:43;100341.66;;;10.27;31.83
49102;BME280;34913;47.520;19.186;2023-03-16T10:16:43;100344.81;;;10.32;32.74
49102;BME280;34913;47.520;19.186;2023-03-16T10:19:35;100344.59;;;10.57;31.76
49102;BME280;34913;47.520;19.186;2023-03-16T10:22:32;100348.00;;;10.71;33.42
49102;BME280;34913;47.520;19.186;2023-03-16T10:27:32;100341.59;;;11.29;30.33
49102;BME280;34913;47.520;19.186;2023-03-16T10:29:59;100341.72;;;11.28;30.45
49102;BME280;34913;47.520;19.186;2023-03-16T10:32:30;100349.25;;;11.23;29.83
49102;BME280;34913;47.520;19.186;2023-03-16T10:35:28;100349.22;;;10.89;29.88
49102;BME280;34913;47.520;19.186;2023-03-16T10:37:48;100351.50;;;11.27;30.06
49102;BME280;34913;47.520;19.186;2023-03-16T10:40:14;100351.03;;;11.11;30.28
49102;BME280;34913;47.520;19.186;2023-03-16T10:42:40;100341.34;;;11.55;28.42
49102;BME280;34913;47.520;19.186;2023-03-16T10:45:21;100344.22;;;11.52;29.53
49102;BME280;34913;47.520;19.186;2023-03-16T10:47:47;100347.28;;;11.36;28.87
49102;BME280;34913;47.520;19.186;2023-03-16T10:50:14;100342.84;;;10.80;28.83
49102;BME280;34913;47.520;19.186;2023-03-16T10:52:47;100349.00;;;11.14;28.35
49102;BME280;34913;47.520;19.186;2023-03-16T10:55:26;100344.88;;;11.22;27.93
49102;BME280;34913;47.520;19.186;2023-03-16T10:57:57;100353.94;;;10.97;27.55
49102;BME280;34913;47.520;19.186;2023-03-16T11:00:40;100343.19;;;10.87;28.22
49102;BME280;34913;47.520;19.186;2023-03-16T11:03:20;100338.59;;;11.34;28.36
49102;BME280;34913;47.520;19.186;2023-03-16T11:05:55;100332.81;;;11.17;26.65
49102;BME280;34913;47.520;19.186;2023-03-16T11:08:24;100330.28;;;11.16;28.86
49102;BME280;34913;47.520;19.186;2023-03-16T11:10:59;100337.53;;;10.92;29.03
49102;BME280;34913;47.520;19.186;2023-03-16T11:13:35;100336.22;;;11.08;28.03
49102;BME280;34913;47.520;19.186;2023-03-16T11:16:27;100332.94;;;11.16;28.29
49102;BME280;34913;47.520;19.186;2023-03-16T11:18:56;100332.63;;;11.53;27.19
49102;BME280;34913;47.520;19.186;2023-03-16T11:27:00;100329.22;;;12.98;27.46
49102;BME280;34913;47.520;19.186;2023-03-16T11:29:40;100320.09;;;13.01;24.90
49102;BME280;34913;47.520;19.186;2023-03-16T11:32:26;100333.97;;;12.95;27.50
49102;BME280;34913;47.520;19.186;2023-03-16T11:34:53;100332.81;;;12.36;27.23
49102;BME280;34913;47.520;19.186;2023-03-16T11:37:28;100324.69;;;12.38;25.76
49102;BME280;34913;47.520;19.186;2023-03-16T11:51:47;100304.72;;;12.74;24.59
49102;BME280;34913;47.520;19.186;2023-03-16T11:54:42;100297.72;;;13.13;23.27
49102;BME280;34913;47.520;19.186;2023-03-16T11:57:48;100300.44;;;12.92;23.75
49102;BME280;34913;47.520;19.186;2023-03-16T12:00:42;100303.16;;;12.71;24.22
49102;BME280;34913;47.520;19.186;2023-03-16T12:11:53;100312.88;;;12.10;23.86
49102;BME280;34913;47.520;19.186;2023-03-16T12:17:03;100299.69;;;11.87;22.77
49102;BME280;34913;47.520;19.186;2023-03-16T12:22:26;100288.41;;;11.95;23.24
49102;BME280;34913;47.520;19.186;2023-03-16T12:24:52;100294.78;;;11.92;23.12
49102;BME280;34913;47.520;19.186;2023-03-16T12:27:25;100291.56;;;12.30;23.33
49102;BME280;34913;47.520;19.186;2023-03-16T12:36:06;100295.88;;;12.01;23.22
49102;BME280;34913;47.520;19.186;2023-03-16T12:41:18;100293.19;;;12.22;28.29
49102;BME280;34913;47.520;19.186;2023-03-16T12:43:59;100293.22;;;12.01;24.97
49102;BME280;34913;47.520;19.186;2023-03-16T12:46:44;100294.13;;;12.11;23.63
49102;BME280;34913;47.520;19.186;2023-03-16T12:49:12;100295.53;;;12.57;23.36
49102;BME280;34913;47.520;19.186;2023-03-16T12:51:40;100298.19;;;12.57;22.78
49102;BME280;34913;47.520;19.186;2023-03-16T12:54:24;100298.06;;;12.89;26.27
49102;BME280;34913;47.520;19.186;2023-03-16T12:56:51;100294.38;;;12.80;21.60
49102;BME280;34913;47.520;19.186;2023-03-16T12:59:20;100294.56;;;12.16;22.02
49102;BME280;34913;47.520;19.186;2023-03-16T13:01:52;100284.56;;;12.29;22.75
49102;BME280;34913;47.520;19.186;2023-03-16T13:04:33;100301.38;;;12.51;22.47
49102;BME280;34913;47.520;19.186;2023-03-16T13:07:21;100303.72;;;12.02;22.40
49102;BME280;34913;47.520;19.186;2023-03-16T13:09:55;100297.34;;;11.51;21.98
49102;BME280;34913;47.520;19.186;2023-03-16T13:12:24;100290.94;;;11.96;22.51
49102;BME280;34913;47.520;19.186;2023-03-16T13:14:50;100284.25;;;11.70;22.54
49102;BME280;34913;47.520;19.186;2023-03-16T13:19:57;100281.81;;;11.67;22.36
49102;BME280;34913;47.520;19.186;2023-03-16T13:22:29;100290.72;;;11.45;20.86
49102;BME280;34913;47.520;19.186;2023-03-16T13:25:12;100283.00;;;11.74;21.78
49102;BME280;34913;47.520;19.186;2023-03-16T13:27:39;100281.53;;;12.13;21.73
49102;BME280;34913;47.520;19.186;2023-03-16T13:30:20;100283.13;;;11.84;21.94
49102;BME280;34913;47.520;19.186;2023-03-16T13:32:47;100285.41;;;11.88;22.00
49102;BME280;34913;47.520;19.186;2023-03-16T13:35:14;100276.25;;;11.38;22.25
49102;BME280;34913;47.520;19.186;2023-03-16T13:37:42;100279.19;;;11.12;23.26
49102;BME280;34913;47.520;19.186;2023-03-16T13:40:21;100294.34;;;11.44;22.73
49102;BME280;34913;47.520;19.186;2023-03-16T13:42:49;100285.09;;;11.27;22.73
49102;BME280;34913;47.520;19.186;2023-03-16T13:45:20;100278.78;;;11.39;23.05
49102;BME280;34913;47.520;19.186;2023-03-16T13:47:48;100274.13;;;11.64;22.84
49102;BME280;34913;47.520;19.186;2023-03-16T13:50:15;100283.47;;;11.47;21.75
49102;BME280;34913;47.520;19.186;2023-03-16T13:52:42;100281.63;;;11.59;22.20
49102;BME280;34913;47.520;19.186;2023-03-16T13:55:22;100284.09;;;11.83;22.07
49102;BME280;34913;47.520;19.186;2023-03-16T13:57:50;100291.28;;;11.05;21.98
49102;BME280;34913;47.520;19.186;2023-03-16T14:02:44;100293.72;;;10.86;22.74
49102;BME280;34913;47.520;19.186;2023-03-16T14:05:17;100283.88;;;11.31;22.03